• Join FlightAware (Why Join?)
  • Login
  • US Flag 
08:45AM EDT


 

Airport Tracker/Info


-or-


 

Live Flight TrackerFlight Track Log ✈ CTL15 ✈ 18-Apr-2013 ✈ KMGY - KBKL

Flight Track Log - Related Links

Times and Time Zones

All times are in EDT time to prevent confusion due to time zone crossing. See the CTL15 flight status page for this flight to view local times or setup timezone preferences in your user account.

Time Position Orientation Groundspeed Altitude Reporting Facility
EDT Latitude Longitude Course Direction KTS MPH feet Rate Location/Type
07:52PM 39.6089 -84.1706 47° Northeast 166 191 2,700  Level Indianapolis Center
07:53PM 39.6394 -84.1286 47° Northeast 173 199 3,400 660 Climbing Indianapolis Center
07:54PM 39.6714 -84.0825 48° Northeast 173 199 4,100 600 Climbing Indianapolis Center
07:55PM 39.7078 -84.0331 46° Northeast 180 207 4,700 600 Climbing Indianapolis Center
07:56PM 39.7414 -83.9839 48° Northeast 182 209 5,400 660 Climbing Indianapolis Center
07:57PM 39.7856 -83.9197 48° Northeast 183 211 6,300 600 Climbing Indianapolis Center
07:58PM 39.8103 -83.8833 49° Northeast 184 212 6,700 540 Climbing Indianapolis Center
07:58PM 39.8256 -83.8622 47° Northeast 185 213 6,900 360 Climbing Indianapolis Center
07:59PM 39.8458 -83.8325 48° Northeast 185 213 7,100  Climbing Indianapolis Center
08:00PM 39.8914 -83.7828 40° Northeast 200 230 7,000 -120 Descending Indianapolis Center
08:00PM 39.9083 -83.7642 40° Northeast 215 247 7,000  Level Indianapolis Center
08:01PM 39.9381 -83.7300 41° Northeast 212 244 7,000  Level Indianapolis Center
08:02PM 39.9883 -83.6733 41° Northeast 219 252 7,000  Level Indianapolis Center
08:03PM 40.0319 -83.6239 41° Northeast 219 252 7,000  Level Indianapolis Center
08:04PM 40.0822 -83.5653 42° Northeast 222 255 7,000  Level Indianapolis Center
08:05PM 40.1339 -83.5067 41° Northeast 222 255 7,000  Level Indianapolis Center
08:06PM 40.1800 -83.4542 41° Northeast 219 252 7,000  Level Indianapolis Center
08:07PM 40.2261 -83.4000 42° Northeast 222 255 7,000  Level Indianapolis Center
08:08PM 40.2728 -83.3442 42° Northeast 221 254 7,000 -60 Level Indianapolis Center
08:09PM 40.3167 -83.2861 45° Northeast 222 255 6,900 -60 Descending Indianapolis Center
08:10PM 40.3606 -83.2269 46° Northeast 223 257 6,900  Level Indianapolis Center
08:11PM 40.4031 -83.1703 45° Northeast 217 250 7,000  Climbing Indianapolis Center
08:12PM 40.4472 -83.1125 45° Northeast 221 254 7,000 -60 Level Indianapolis Center
08:13PM 40.4936 -83.0586 41° Northeast 220 253 6,900  Descending Indianapolis Center
08:14PM 40.5411 -82.9989 44° Northeast 219 252 7,000  Climbing Indianapolis Center
08:15PM 40.5847 -82.9419 45° Northeast 219 252 7,000  Level Indianapolis Center
08:16PM 40.6300 -82.8878 42° Northeast 217 250 7,000  Level Indianapolis Center
08:17PM 40.6750 -82.8328 43° Northeast 218 251 7,000  Level Indianapolis Center
08:18PM 40.7197 -82.7772 43° Northeast 219 252 7,000 -60 Level Indianapolis Center
08:19PM 40.7644 -82.7206 44° Northeast 220 253 6,900 -60 Descending Indianapolis Center
08:20PM 40.8083 -82.6636 44° Northeast 219 252 6,900  Level Indianapolis Center
08:21PM 40.8525 -82.6075 44° Northeast 218 251 6,900  Level Indianapolis Center
08:22PM 40.9028 -82.5475 42° Northeast 219 252 7,000  Climbing Cleveland Center
08:23PM 40.9456 -82.4936 44° Northeast 217 250 7,000  Level Cleveland Center